sensor_id;sensor_type;location;lat;lon;timestamp;P1;durP1;ratioP1;P2;durP2;ratioP2
28547;SDS011;68292;49.600;8.746;2023-06-22T00:00:34;10.55;;;5.90;;
28547;SDS011;68292;49.600;8.746;2023-06-22T00:03:02;7.30;;;6.47;;
28547;SDS011;68292;49.600;8.746;2023-06-22T00:05:31;6.60;;;6.00;;
28547;SDS011;68292;49.600;8.746;2023-06-22T00:08:01;5.88;;;5.38;;
28547;SDS011;68292;49.600;8.746;2023-06-22T00:10:31;5.65;;;5.00;;
28547;SDS011;68292;49.600;8.746;2023-06-22T00:13:00;6.20;;;5.60;;
28547;SDS011;68292;49.600;8.746;2023-06-22T00:15:28;7.25;;;5.38;;
28547;SDS011;68292;49.600;8.746;2023-06-22T00:17:57;6.88;;;6.28;;
28547;SDS011;68292;49.600;8.746;2023-06-22T00:20:25;6.72;;;6.13;;
28547;SDS011;68292;49.600;8.746;2023-06-22T00:22:57;6.38;;;5.50;;
28547;SDS011;68292;49.600;8.746;2023-06-22T00:25:26;6.70;;;6.10;;
28547;SDS011;68292;49.600;8.746;2023-06-22T00:27:54;6.53;;;5.70;;
28547;SDS011;68292;49.600;8.746;2023-06-22T00:30:24;7.15;;;6.55;;
28547;SDS011;68292;49.600;8.746;2023-06-22T00:32:56;7.38;;;6.00;;
28547;SDS011;68292;49.600;8.746;2023-06-22T00:35:24;6.10;;;5.50;;
28547;SDS011;68292;49.600;8.746;2023-06-22T00:37:55;6.28;;;5.57;;
28547;SDS011;68292;49.600;8.746;2023-06-22T00:40:27;5.95;;;5.45;;
28547;SDS011;68292;49.600;8.746;2023-06-22T00:42:56;6.50;;;5.88;;
28547;SDS011;68292;49.600;8.746;2023-06-22T00:45:27;5.93;;;5.25;;
28547;SDS011;68292;49.600;8.746;2023-06-22T00:47:55;6.90;;;6.30;;
28547;SDS011;68292;49.600;8.746;2023-06-22T00:50:26;7.07;;;6.47;;
28547;SDS011;68292;49.600;8.746;2023-06-22T00:53:00;6.78;;;6.18;;
28547;SDS011;68292;49.600;8.746;2023-06-22T00:55:35;6.95;;;6.25;;
28547;SDS011;68292;49.600;8.746;2023-06-22T00:58:05;6.10;;;5.60;;
28547;SDS011;68292;49.600;8.746;2023-06-22T01:00:38;6.55;;;6.00;;
28547;SDS011;68292;49.600;8.746;2023-06-22T01:03:07;6.75;;;6.15;;
28547;SDS011;68292;49.600;8.746;2023-06-22T01:05:37;5.65;;;5.15;;
28547;SDS011;68292;49.600;8.746;2023-06-22T01:08:08;7.63;;;6.93;;
28547;SDS011;68292;49.600;8.746;2023-06-22T01:10:48;8.55;;;7.22;;
28547;SDS011;68292;49.600;8.746;2023-06-22T01:13:26;25.15;;;8.10;;
28547;SDS011;68292;49.600;8.746;2023-06-22T01:16:03;10.40;;;7.95;;
28547;SDS011;68292;49.600;8.746;2023-06-22T01:18:37;9.15;;;7.43;;
28547;SDS011;68292;49.600;8.746;2023-06-22T01:21:12;10.60;;;7.50;;
28547;SDS011;68292;49.600;8.746;2023-06-22T01:23:53;7.65;;;6.97;;
28547;SDS011;68292;49.600;8.746;2023-06-22T01:26:35;6.75;;;6.25;;
28547;SDS011;68292;49.600;8.746;2023-06-22T01:29:08;5.80;;;5.38;;
28547;SDS011;68292;49.600;8.746;2023-06-22T01:31:40;6.50;;;5.90;;
28547;SDS011;68292;49.600;8.746;2023-06-22T01:34:11;7.65;;;6.95;;
28547;SDS011;68292;49.600;8.746;2023-06-22T01:36:40;12.60;;;7.22;;
28547;SDS011;68292;49.600;8.746;2023-06-22T01:39:10;7.18;;;6.55;;
28547;SDS011;68292;49.600;8.746;2023-06-22T01:41:40;8.15;;;7.45;;
28547;SDS011;68292;49.600;8.746;2023-06-22T01:44:11;7.65;;;7.05;;
28547;SDS011;68292;49.600;8.746;2023-06-22T01:46:41;8.35;;;7.65;;
28547;SDS011;68292;49.600;8.746;2023-06-22T01:49:09;7.47;;;6.88;;
28547;SDS011;68292;49.600;8.746;2023-06-22T01:51:37;8.23;;;7.18;;
28547;SDS011;68292;49.600;8.746;2023-06-22T01:54:06;8.15;;;7.45;;
28547;SDS011;68292;49.600;8.746;2023-06-22T01:56:35;8.18;;;7.47;;
28547;SDS011;68292;49.600;8.746;2023-06-22T01:59:04;9.07;;;8.02;;
28547;SDS011;68292;49.600;8.746;2023-06-22T02:01:42;8.65;;;7.85;;
28547;SDS011;68292;49.600;8.746;2023-06-22T02:04:19;8.75;;;8.05;;
28547;SDS011;68292;49.600;8.746;2023-06-22T02:06:54;8.65;;;7.90;;
28547;SDS011;68292;49.600;8.746;2023-06-22T02:09:26;8.95;;;8.05;;
28547;SDS011;68292;49.600;8.746;2023-06-22T02:11:59;8.57;;;7.80;;
28547;SDS011;68292;49.600;8.746;2023-06-22T02:14:31;8.50;;;7.70;;
28547;SDS011;68292;49.600;8.746;2023-06-22T02:16:59;8.93;;;7.85;;
28547;SDS011;68292;49.600;8.746;2023-06-22T02:19:28;8.43;;;7.50;;
28547;SDS011;68292;49.600;8.746;2023-06-22T02:21:59;8.30;;;7.63;;
28547;SDS011;68292;49.600;8.746;2023-06-22T02:24:28;13.77;;;8.75;;
28547;SDS011;68292;49.600;8.746;2023-06-22T02:26:58;7.60;;;6.90;;
28547;SDS011;68292;49.600;8.746;2023-06-22T02:29:26;7.93;;;7.25;;
28547;SDS011;68292;49.600;8.746;2023-06-22T02:31:56;9.77;;;7.30;;
28547;SDS011;68292;49.600;8.746;2023-06-22T02:34:24;8.18;;;7.53;;
28547;SDS011;68292;49.600;8.746;2023-06-22T02:36:53;7.03;;;6.32;;
28547;SDS011;68292;49.600;8.746;2023-06-22T02:39:22;7.30;;;6.57;;
28547;SDS011;68292;49.600;8.746;2023-06-22T02:41:52;6.45;;;5.95;;
28547;SDS011;68292;49.600;8.746;2023-06-22T02:44:21;7.90;;;6.90;;
28547;SDS011;68292;49.600;8.746;2023-06-22T02:46:49;7.60;;;6.90;;
28547;SDS011;68292;49.600;8.746;2023-06-22T02:49:19;6.90;;;6.35;;
28547;SDS011;68292;49.600;8.746;2023-06-22T02:51:48;7.00;;;6.38;;
28547;SDS011;68292;49.600;8.746;2023-06-22T02:54:19;6.72;;;6.22;;
28547;SDS011;68292;49.600;8.746;2023-06-22T02:56:49;7.93;;;7.20;;
28547;SDS011;68292;49.600;8.746;2023-06-22T02:59:19;8.57;;;7.78;;
28547;SDS011;68292;49.600;8.746;2023-06-22T03:01:52;9.52;;;6.72;;
28547;SDS011;68292;49.600;8.746;2023-06-22T03:04:26;7.55;;;6.95;;
28547;SDS011;68292;49.600;8.746;2023-06-22T03:06:54;6.88;;;6.28;;
28547;SDS011;68292;49.600;8.746;2023-06-22T03:09:22;8.07;;;6.82;;
28547;SDS011;68292;49.600;8.746;2023-06-22T03:11:51;7.07;;;6.28;;
28547;SDS011;68292;49.600;8.746;2023-06-22T03:14:20;7.53;;;6.70;;
28547;SDS011;68292;49.600;8.746;2023-06-22T03:16:50;7.60;;;6.90;;
28547;SDS011;68292;49.600;8.746;2023-06-22T03:19:19;6.97;;;6.32;;
28547;SDS011;68292;49.600;8.746;2023-06-22T03:21:49;6.63;;;6.10;;
28547;SDS011;68292;49.600;8.746;2023-06-22T03:24:18;8.02;;;6.97;;
28547;SDS011;68292;49.600;8.746;2023-06-22T03:26:46;6.88;;;6.28;;
28547;SDS011;68292;49.600;8.746;2023-06-22T03:29:15;7.70;;;6.95;;
28547;SDS011;68292;49.600;8.746;2023-06-22T03:31:44;7.60;;;6.93;;
28547;SDS011;68292;49.600;8.746;2023-06-22T03:34:13;6.93;;;6.07;;
28547;SDS011;68292;49.600;8.746;2023-06-22T03:36:41;7.00;;;6.32;;
28547;SDS011;68292;49.600;8.746;2023-06-22T03:39:12;7.15;;;6.53;;
28547;SDS011;68292;49.600;8.746;2023-06-22T03:41:41;7.25;;;6.63;;
28547;SDS011;68292;49.600;8.746;2023-06-22T03:44:09;7.07;;;6.47;;
28547;SDS011;68292;49.600;8.746;2023-06-22T03:46:38;7.65;;;6.95;;
28547;SDS011;68292;49.600;8.746;2023-06-22T03:49:07;7.55;;;6.85;;
28547;SDS011;68292;49.600;8.746;2023-06-22T03:51:35;7.47;;;6.78;;
28547;SDS011;68292;49.600;8.746;2023-06-22T03:54:03;7.05;;;6.45;;
28547;SDS011;68292;49.600;8.746;2023-06-22T03:56:32;7.30;;;6.57;;
28547;SDS011;68292;49.600;8.746;2023-06-22T03:59:01;6.47;;;5.97;;
28547;SDS011;68292;49.600;8.746;2023-06-22T04:01:29;7.68;;;6.72;;
28547;SDS011;68292;49.600;8.746;2023-06-22T04:03:57;7.05;;;6.35;;
28547;SDS011;68292;49.600;8.746;2023-06-22T04:06:25;7.53;;;6.88;;
28547;SDS011;68292;49.600;8.746;2023-06-22T04:08:53;7.30;;;6.60;;
28547;SDS011;68292;49.600;8.746;2023-06-22T04:11:21;7.55;;;6.95;;
28547;SDS011;68292;49.600;8.746;2023-06-22T04:13:51;7.38;;;6.80;;
28547;SDS011;68292;49.600;8.746;2023-06-22T04:16:20;7.07;;;6.47;;
28547;SDS011;68292;49.600;8.746;2023-06-22T04:18:48;7.07;;;6.47;;
28547;SDS011;68292;49.600;8.746;2023-06-22T04:21:16;6.63;;;6.03;;
28547;SDS011;68292;49.600;8.746;2023-06-22T04:23:45;6.90;;;6.30;;
28547;SDS011;68292;49.600;8.746;2023-06-22T04:26:14;7.35;;;6.65;;
28547;SDS011;68292;49.600;8.746;2023-06-22T04:28:42;7.40;;;6.70;;
28547;SDS011;68292;49.600;8.746;2023-06-22T04:31:19;7.38;;;6.68;;
28547;SDS011;68292;49.600;8.746;2023-06-22T04:33:47;7.55;;;6.85;;
28547;SDS011;68292;49.600;8.746;2023-06-22T04:36:17;7.07;;;6.47;;
28547;SDS011;68292;49.600;8.746;2023-06-22T04:38:50;7.03;;;6.43;;
28547;SDS011;68292;49.600;8.746;2023-06-22T04:41:18;7.80;;;6.85;;
28547;SDS011;68292;49.600;8.746;2023-06-22T04:43:50;6.72;;;6.13;;
28547;SDS011;68292;49.600;8.746;2023-06-22T04:46:21;8.13;;;7.38;;
28547;SDS011;68292;49.600;8.746;2023-06-22T04:48:49;7.70;;;6.88;;
28547;SDS011;68292;49.600;8.746;2023-06-22T04:51:17;7.45;;;6.75;;
28547;SDS011;68292;49.600;8.746;2023-06-22T04:53:48;6.80;;;6.20;;
28547;SDS011;68292;49.600;8.746;2023-06-22T04:56:16;8.50;;;7.60;;
28547;SDS011;68292;49.600;8.746;2023-06-22T04:58:44;8.25;;;6.55;;
28547;SDS011;68292;49.600;8.746;2023-06-22T05:01:12;7.93;;;7.13;;
28547;SDS011;68292;49.600;8.746;2023-06-22T05:03:41;7.50;;;6.90;;
28547;SDS011;68292;49.600;8.746;2023-06-22T05:06:10;7.65;;;6.55;;
28547;SDS011;68292;49.600;8.746;2023-06-22T05:08:39;7.38;;;6.78;;
28547;SDS011;68292;49.600;8.746;2023-06-22T05:11:07;7.85;;;7.00;;
28547;SDS011;68292;49.600;8.746;2023-06-22T05:13:35;7.90;;;7.20;;
28547;SDS011;68292;49.600;8.746;2023-06-22T05:16:04;8.13;;;6.43;;
28547;SDS011;68292;49.600;8.746;2023-06-22T05:18:32;8.15;;;7.40;;
28547;SDS011;68292;49.600;8.746;2023-06-22T05:21:02;8.43;;;7.72;;
28547;SDS011;68292;49.600;8.746;2023-06-22T05:23:30;7.50;;;6.80;;
28547;SDS011;68292;49.600;8.746;2023-06-22T05:25:58;8.27;;;7.50;;
28547;SDS011;68292;49.600;8.746;2023-06-22T05:28:26;8.45;;;7.70;;
28547;SDS011;68292;49.600;8.746;2023-06-22T05:30:55;8.23;;;7.43;;
28547;SDS011;68292;49.600;8.746;2023-06-22T05:33:23;7.93;;;7.22;;
28547;SDS011;68292;49.600;8.746;2023-06-22T05:35:51;8.20;;;7.47;;
28547;SDS011;68292;49.600;8.746;2023-06-22T05:38:20;8.75;;;7.95;;
28547;SDS011;68292;49.600;8.746;2023-06-22T05:40:48;8.68;;;7.82;;
28547;SDS011;68292;49.600;8.746;2023-06-22T05:43:16;9.88;;;7.22;;
28547;SDS011;68292;49.600;8.746;2023-06-22T05:45:44;8.70;;;7.82;;
28547;SDS011;68292;49.600;8.746;2023-06-22T05:48:13;8.60;;;7.90;;
28547;SDS011;68292;49.600;8.746;2023-06-22T05:50:41;8.85;;;8.07;;
28547;SDS011;68292;49.600;8.746;2023-06-22T05:53:09;9.30;;;8.30;;
28547;SDS011;68292;49.600;8.746;2023-06-22T05:55:39;9.10;;;8.40;;
28547;SDS011;68292;49.600;8.746;2023-06-22T05:58:08;9.43;;;8.30;;
28547;SDS011;68292;49.600;8.746;2023-06-22T06:00:36;8.60;;;7.80;;
28547;SDS011;68292;49.600;8.746;2023-06-22T06:03:04;10.75;;;8.02;;
28547;SDS011;68292;49.600;8.746;2023-06-22T06:05:34;8.30;;;7.50;;
28547;SDS011;68292;49.600;8.746;2023-06-22T06:08:03;9.75;;;7.90;;
28547;SDS011;68292;49.600;8.746;2023-06-22T06:10:33;9.38;;;8.07;;
28547;SDS011;68292;49.600;8.746;2023-06-22T06:13:04;9.30;;;8.50;;
28547;SDS011;68292;49.600;8.746;2023-06-22T06:15:32;7.78;;;6.97;;
28547;SDS011;68292;49.600;8.746;2023-06-22T06:18:01;8.63;;;7.82;;
28547;SDS011;68292;49.600;8.746;2023-06-22T06:20:32;8.80;;;8.00;;
28547;SDS011;68292;49.600;8.746;2023-06-22T06:23:00;8.68;;;7.97;;
28547;SDS011;68292;49.600;8.746;2023-06-22T06:25:29;9.05;;;8.15;;
28547;SDS011;68292;49.600;8.746;2023-06-22T06:27:57;8.65;;;7.95;;
28547;SDS011;68292;49.600;8.746;2023-06-22T06:30:26;10.02;;;8.70;;
28547;SDS011;68292;49.600;8.746;2023-06-22T06:32:55;9.48;;;8.60;;
28547;SDS011;68292;49.600;8.746;2023-06-22T06:35:23;8.82;;;7.93;;
28547;SDS011;68292;49.600;8.746;2023-06-22T06:37:52;9.63;;;8.73;;
28547;SDS011;68292;49.600;8.746;2023-06-22T06:40:20;8.35;;;7.65;;
28547;SDS011;68292;49.600;8.746;2023-06-22T06:42:48;9.50;;;8.65;;
28547;SDS011;68292;49.600;8.746;2023-06-22T06:45:17;9.23;;;8.43;;
28547;SDS011;68292;49.600;8.746;2023-06-22T06:47:50;10.38;;;8.57;;
28547;SDS011;68292;49.600;8.746;2023-06-22T06:50:19;8.80;;;8.00;;
28547;SDS011;68292;49.600;8.746;2023-06-22T06:52:48;9.70;;;8.90;;
28547;SDS011;68292;49.600;8.746;2023-06-22T06:55:18;8.75;;;7.95;;
28547;SDS011;68292;49.600;8.746;2023-06-22T06:57:46;9.45;;;8.55;;
28547;SDS011;68292;49.600;8.746;2023-06-22T07:00:16;9.20;;;8.43;;
28547;SDS011;68292;49.600;8.746;2023-06-22T07:02:46;9.82;;;8.85;;
28547;SDS011;68292;49.600;8.746;2023-06-22T07:05:17;9.88;;;9.07;;
28547;SDS011;68292;49.600;8.746;2023-06-22T07:07:45;9.50;;;8.60;;
28547;SDS011;68292;49.600;8.746;2023-06-22T07:10:13;9.65;;;8.85;;
28547;SDS011;68292;49.600;8.746;2023-06-22T07:12:42;9.95;;;9.05;;
28547;SDS011;68292;49.600;8.746;2023-06-22T07:15:11;9.25;;;8.43;;
28547;SDS011;68292;49.600;8.746;2023-06-22T07:17:39;9.93;;;9.02;;
28547;SDS011;68292;49.600;8.746;2023-06-22T07:20:08;11.52;;;9.05;;
28547;SDS011;68292;49.600;8.746;2023-06-22T07:22:41;9.77;;;8.80;;
28547;SDS011;68292;49.600;8.746;2023-06-22T07:25:11;9.38;;;8.57;;
28547;SDS011;68292;49.600;8.746;2023-06-22T07:27:46;8.77;;;7.82;;
28547;SDS011;68292;49.600;8.746;2023-06-22T07:30:25;9.13;;;8.27;;
28547;SDS011;68292;49.600;8.746;2023-06-22T07:32:54;9.73;;;8.73;;
28547;SDS011;68292;49.600;8.746;2023-06-22T07:35:22;9.30;;;8.45;;
28547;SDS011;68292;49.600;8.746;2023-06-22T07:37:51;9.82;;;8.90;;
28547;SDS011;68292;49.600;8.746;2023-06-22T07:40:19;10.02;;;9.02;;
28547;SDS011;68292;49.600;8.746;2023-06-22T07:42:47;9.07;;;8.27;;
28547;SDS011;68292;49.600;8.746;2023-06-22T07:45:18;10.30;;;8.40;;
28547;SDS011;68292;49.600;8.746;2023-06-22T07:47:46;9.63;;;8.73;;
28547;SDS011;68292;49.600;8.746;2023-06-22T07:50:14;9.30;;;8.43;;
28547;SDS011;68292;49.600;8.746;2023-06-22T07:52:42;8.93;;;8.10;;
28547;SDS011;68292;49.600;8.746;2023-06-22T07:55:12;9.27;;;8.38;;
28547;SDS011;68292;49.600;8.746;2023-06-22T07:57:40;8.63;;;7.82;;
28547;SDS011;68292;49.600;8.746;2023-06-22T08:00:09;8.90;;;8.10;;
28547;SDS011;68292;49.600;8.746;2023-06-22T08:02:40;8.73;;;7.82;;
28547;SDS011;68292;49.600;8.746;2023-06-22T08:05:09;8.40;;;7.68;;
28547;SDS011;68292;49.600;8.746;2023-06-22T08:07:46;9.07;;;7.88;;
28547;SDS011;68292;49.600;8.746;2023-06-22T08:10:16;8.55;;;7.65;;
28547;SDS011;68292;49.600;8.746;2023-06-22T08:12:45;10.07;;;7.50;;
28547;SDS011;68292;49.600;8.746;2023-06-22T08:15:13;8.85;;;8.15;;
28547;SDS011;68292;49.600;8.746;2023-06-22T08:17:41;8.73;;;7.93;;
28547;SDS011;68292;49.600;8.746;2023-06-22T08:20:10;9.05;;;8.15;;
28547;SDS011;68292;49.600;8.746;2023-06-22T08:22:39;8.52;;;7.65;;
28547;SDS011;68292;49.600;8.746;2023-06-22T08:25:08;9.50;;;8.50;;
28547;SDS011;68292;49.600;8.746;2023-06-22T08:27:40;9.13;;;8.15;;
28547;SDS011;68292;49.600;8.746;2023-06-22T08:30:14;9.05;;;8.05;;
28547;SDS011;68292;49.600;8.746;2023-06-22T08:32:44;9.02;;;8.20;;
28547;SDS011;68292;49.600;8.746;2023-06-22T08:35:12;8.45;;;7.72;;
28547;SDS011;68292;49.600;8.746;2023-06-22T08:37:40;8.38;;;7.55;;
28547;SDS011;68292;49.600;8.746;2023-06-22T08:40:09;8.80;;;8.13;;
28547;SDS011;68292;49.600;8.746;2023-06-22T08:42:40;9.88;;;7.90;;
28547;SDS011;68292;49.600;8.746;2023-06-22T08:45:09;9.23;;;8.43;;
28547;SDS011;68292;49.600;8.746;2023-06-22T08:47:38;8.63;;;7.80;;
28547;SDS011;68292;49.600;8.746;2023-06-22T08:50:08;8.55;;;7.75;;
28547;SDS011;68292;49.600;8.746;2023-06-22T08:52:37;8.73;;;7.93;;
28547;SDS011;68292;49.600;8.746;2023-06-22T08:55:08;8.80;;;8.10;;
28547;SDS011;68292;49.600;8.746;2023-06-22T08:57:37;7.90;;;7.20;;
28547;SDS011;68292;49.600;8.746;2023-06-22T09:00:07;8.13;;;7.32;;
28547;SDS011;68292;49.600;8.746;2023-06-22T09:02:42;8.82;;;8.02;;
28547;SDS011;68292;49.600;8.746;2023-06-22T09:05:11;9.38;;;7.60;;
28547;SDS011;68292;49.600;8.746;2023-06-22T09:07:40;8.63;;;7.82;;
28547;SDS011;68292;49.600;8.746;2023-06-22T09:10:09;8.50;;;7.70;;
28547;SDS011;68292;49.600;8.746;2023-06-22T09:12:39;8.45;;;7.63;;
28547;SDS011;68292;49.600;8.746;2023-06-22T09:15:09;7.90;;;7.20;;
28547;SDS011;68292;49.600;8.746;2023-06-22T09:17:43;8.88;;;7.95;;
28547;SDS011;68292;49.600;8.746;2023-06-22T09:20:13;8.50;;;7.60;;
28547;SDS011;68292;49.600;8.746;2023-06-22T09:22:42;10.15;;;8.07;;
28547;SDS011;68292;49.600;8.746;2023-06-22T09:25:10;7.70;;;7.03;;
28547;SDS011;68292;49.600;8.746;2023-06-22T09:27:39;7.50;;;6.80;;
28547;SDS011;68292;49.600;8.746;2023-06-22T09:30:08;7.82;;;7.13;;
28547;SDS011;68292;49.600;8.746;2023-06-22T09:32:37;10.20;;;7.55;;
28547;SDS011;68292;49.600;8.746;2023-06-22T09:35:06;7.65;;;6.68;;
28547;SDS011;68292;49.600;8.746;2023-06-22T09:37:38;7.75;;;6.97;;
28547;SDS011;68292;49.600;8.746;2023-06-22T09:40:07;7.63;;;6.65;;
28547;SDS011;68292;49.600;8.746;2023-06-22T09:42:37;7.70;;;6.82;;
28547;SDS011;68292;49.600;8.746;2023-06-22T09:45:06;8.05;;;7.07;;
28547;SDS011;68292;49.600;8.746;2023-06-22T09:47:36;9.02;;;6.80;;
28547;SDS011;68292;49.600;8.746;2023-06-22T09:50:05;8.40;;;7.15;;
28547;SDS011;68292;49.600;8.746;2023-06-22T09:52:34;8.25;;;7.45;;
28547;SDS011;68292;49.600;8.746;2023-06-22T09:55:06;8.35;;;7.10;;
28547;SDS011;68292;49.600;8.746;2023-06-22T09:57:35;10.45;;;7.50;;
28547;SDS011;68292;49.600;8.746;2023-06-22T10:00:03;8.25;;;7.18;;
28547;SDS011;68292;49.600;8.746;2023-06-22T10:02:37;9.73;;;7.05;;
28547;SDS011;68292;49.600;8.746;2023-06-22T10:05:06;9.05;;;6.93;;
28547;SDS011;68292;49.600;8.746;2023-06-22T10:07:35;8.05;;;7.25;;
28547;SDS011;68292;49.600;8.746;2023-06-22T10:10:06;7.68;;;6.80;;
28547;SDS011;68292;49.600;8.746;2023-06-22T10:12:35;7.50;;;6.60;;
28547;SDS011;68292;49.600;8.746;2023-06-22T10:15:04;7.45;;;6.65;;
28547;SDS011;68292;49.600;8.746;2023-06-22T10:17:34;9.40;;;6.28;;
28547;SDS011;68292;49.600;8.746;2023-06-22T10:20:04;7.75;;;6.57;;
28547;SDS011;68292;49.600;8.746;2023-06-22T10:22:38;9.18;;;7.25;;
28547;SDS011;68292;49.600;8.746;2023-06-22T10:25:07;7.30;;;6.68;;
28547;SDS011;68292;49.600;8.746;2023-06-22T10:27:36;7.20;;;6.50;;
28547;SDS011;68292;49.600;8.746;2023-06-22T10:30:06;9.75;;;6.82;;
28547;SDS011;68292;49.600;8.746;2023-06-22T10:32:37;7.70;;;6.93;;
28547;SDS011;68292;49.600;8.746;2023-06-22T10:35:08;7.90;;;7.07;;
28547;SDS011;68292;49.600;8.746;2023-06-22T10:37:39;10.45;;;7.07;;
28547;SDS011;68292;49.600;8.746;2023-06-22T10:40:09;7.25;;;6.57;;
28547;SDS011;68292;49.600;8.746;2023-06-22T10:42:39;10.50;;;7.72;;
28547;SDS011;68292;49.600;8.746;2023-06-22T10:45:08;10.07;;;6.68;;
28547;SDS011;68292;49.600;8.746;2023-06-22T10:47:36;10.27;;;7.47;;
28547;SDS011;68292;49.600;8.746;2023-06-22T10:50:05;12.25;;;7.50;;
28547;SDS011;68292;49.600;8.746;2023-06-22T10:52:36;13.70;;;7.32;;
28547;SDS011;68292;49.600;8.746;2023-06-22T10:55:04;7.82;;;6.78;;
28547;SDS011;68292;49.600;8.746;2023-06-22T10:57:33;11.07;;;6.80;;
28547;SDS011;68292;49.600;8.746;2023-06-22T11:00:03;10.23;;;6.97;;
28547;SDS011;68292;49.600;8.746;2023-06-22T11:02:33;8.90;;;7.15;;
28547;SDS011;68292;49.600;8.746;2023-06-22T11:05:01;8.48;;;6.85;;
28547;SDS011;68292;49.600;8.746;2023-06-22T11:07:31;7.82;;;6.47;;
28547;SDS011;68292;49.600;8.746;2023-06-22T11:09:59;10.32;;;7.55;;
28547;SDS011;68292;49.600;8.746;2023-06-22T11:12:27;8.10;;;6.85;;
28547;SDS011;68292;49.600;8.746;2023-06-22T11:14:55;12.13;;;7.55;;
28547;SDS011;68292;49.600;8.746;2023-06-22T11:17:25;10.75;;;7.85;;
28547;SDS011;68292;49.600;8.746;2023-06-22T11:19:53;10.80;;;7.22;;
28547;SDS011;68292;49.600;8.746;2023-06-22T11:22:21;9.23;;;7.30;;
28547;SDS011;68292;49.600;8.746;2023-06-22T11:24:50;8.35;;;6.93;;
28547;SDS011;68292;49.600;8.746;2023-06-22T11:27:18;11.52;;;8.00;;
28547;SDS011;68292;49.600;8.746;2023-06-22T11:29:47;9.75;;;7.68;;
28547;SDS011;68292;49.600;8.746;2023-06-22T11:32:16;7.80;;;7.00;;
28547;SDS011;68292;49.600;8.746;2023-06-22T11:34:44;7.95;;;7.00;;
28547;SDS011;68292;49.600;8.746;2023-06-22T11:37:12;7.68;;;7.00;;
28547;SDS011;68292;49.600;8.746;2023-06-22T11:39:41;9.23;;;7.57;;
28547;SDS011;68292;49.600;8.746;2023-06-22T11:42:26;8.88;;;7.50;;
28547;SDS011;68292;49.600;8.746;2023-06-22T11:44:54;9.52;;;7.65;;
28547;SDS011;68292;49.600;8.746;2023-06-22T11:47:26;15.20;;;8.15;;
28547;SDS011;68292;49.600;8.746;2023-06-22T11:49:54;9.00;;;7.97;;
28547;SDS011;68292;49.600;8.746;2023-06-22T11:52:22;10.13;;;7.95;;
28547;SDS011;68292;49.600;8.746;2023-06-22T11:54:50;8.80;;;7.25;;
28547;SDS011;68292;49.600;8.746;2023-06-22T11:57:18;10.80;;;7.38;;
28547;SDS011;68292;49.600;8.746;2023-06-22T11:59:47;11.68;;;7.82;;
28547;SDS011;68292;49.600;8.746;2023-06-22T12:02:16;9.45;;;8.38;;
28547;SDS011;68292;49.600;8.746;2023-06-22T12:04:44;11.90;;;8.23;;
28547;SDS011;68292;49.600;8.746;2023-06-22T12:07:12;10.52;;;7.55;;
28547;SDS011;68292;49.600;8.746;2023-06-22T12:09:41;11.48;;;7.75;;
28547;SDS011;68292;49.600;8.746;2023-06-22T12:12:09;8.45;;;7.65;;
28547;SDS011;68292;49.600;8.746;2023-06-22T12:14:37;11.20;;;7.18;;
28547;SDS011;68292;49.600;8.746;2023-06-22T12:17:07;13.25;;;7.38;;
28547;SDS011;68292;49.600;8.746;2023-06-22T12:19:35;7.55;;;6.85;;
28547;SDS011;68292;49.600;8.746;2023-06-22T12:22:03;7.63;;;6.82;;
28547;SDS011;68292;49.600;8.746;2023-06-22T12:24:31;9.55;;;7.35;;
28547;SDS011;68292;49.600;8.746;2023-06-22T12:26:59;10.18;;;6.80;;
28547;SDS011;68292;49.600;8.746;2023-06-22T12:29:29;8.30;;;7.32;;
28547;SDS011;68292;49.600;8.746;2023-06-22T12:31:57;10.60;;;7.10;;
28547;SDS011;68292;49.600;8.746;2023-06-22T12:34:27;12.90;;;7.25;;
28547;SDS011;68292;49.600;8.746;2023-06-22T12:36:55;8.57;;;7.63;;
28547;SDS011;68292;49.600;8.746;2023-06-22T12:39:23;8.00;;;7.30;;
28547;SDS011;68292;49.600;8.746;2023-06-22T12:41:51;8.75;;;7.13;;
28547;SDS011;68292;49.600;8.746;2023-06-22T12:44:19;8.88;;;6.50;;
28547;SDS011;68292;49.600;8.746;2023-06-22T12:46:47;7.93;;;6.80;;
28547;SDS011;68292;49.600;8.746;2023-06-22T12:49:16;8.07;;;7.25;;
28547;SDS011;68292;49.600;8.746;2023-06-22T12:51:45;9.88;;;6.15;;
28547;SDS011;68292;49.600;8.746;2023-06-22T12:54:13;8.20;;;6.88;;
28547;SDS011;68292;49.600;8.746;2023-06-22T12:56:41;8.68;;;6.85;;
28547;SDS011;68292;49.600;8.746;2023-06-22T12:59:11;9.43;;;7.28;;
28547;SDS011;68292;49.600;8.746;2023-06-22T13:01:39;7.45;;;6.50;;
28547;SDS011;68292;49.600;8.746;2023-06-22T13:04:07;7.38;;;6.78;;
28547;SDS011;68292;49.600;8.746;2023-06-22T13:06:37;9.65;;;6.18;;
28547;SDS011;68292;49.600;8.746;2023-06-22T13:09:06;9.80;;;6.38;;
28547;SDS011;68292;49.600;8.746;2023-06-22T13:11:46;7.35;;;6.20;;
28547;SDS011;68292;49.600;8.746;2023-06-22T13:14:14;6.90;;;6.00;;
28547;SDS011;68292;49.600;8.746;2023-06-22T13:16:43;7.93;;;6.13;;
28547;SDS011;68292;49.600;8.746;2023-06-22T13:19:11;10.07;;;6.55;;
28547;SDS011;68292;49.600;8.746;2023-06-22T13:21:39;11.45;;;6.63;;
28547;SDS011;68292;49.600;8.746;2023-06-22T13:24:09;7.80;;;6.70;;
28547;SDS011;68292;49.600;8.746;2023-06-22T13:26:37;9.38;;;6.15;;
28547;SDS011;68292;49.600;8.746;2023-06-22T13:29:05;10.05;;;7.10;;
28547;SDS011;68292;49.600;8.746;2023-06-22T13:31:33;8.98;;;6.13;;
28547;SDS011;68292;49.600;8.746;2023-06-22T13:34:01;7.97;;;6.20;;
28547;SDS011;68292;49.600;8.746;2023-06-22T13:36:30;7.28;;;6.18;;
28547;SDS011;68292;49.600;8.746;2023-06-22T13:38:58;7.40;;;5.90;;
28547;SDS011;68292;49.600;8.746;2023-06-22T13:41:27;8.75;;;5.57;;
28547;SDS011;68292;49.600;8.746;2023-06-22T13:43:55;9.90;;;6.07;;
28547;SDS011;68292;49.600;8.746;2023-06-22T13:46:23;10.48;;;6.35;;
28547;SDS011;68292;49.600;8.746;2023-06-22T13:48:51;15.60;;;7.35;;
28547;SDS011;68292;49.600;8.746;2023-06-22T13:51:22;8.50;;;5.85;;
28547;SDS011;68292;49.600;8.746;2023-06-22T13:53:50;11.07;;;7.03;;
28547;SDS011;68292;49.600;8.746;2023-06-22T13:56:18;8.82;;;6.22;;
28547;SDS011;68292;49.600;8.746;2023-06-22T13:58:49;10.73;;;7.13;;
28547;SDS011;68292;49.600;8.746;2023-06-22T14:01:17;8.68;;;7.18;;
28547;SDS011;68292;49.600;8.746;2023-06-22T14:03:45;11.25;;;6.78;;
28547;SDS011;68292;49.600;8.746;2023-06-22T14:06:15;9.48;;;5.85;;
28547;SDS011;68292;49.600;8.746;2023-06-22T14:08:43;8.73;;;6.40;;
28547;SDS011;68292;49.600;8.746;2023-06-22T14:11:12;12.23;;;6.65;;
28547;SDS011;68292;49.600;8.746;2023-06-22T14:13:40;9.40;;;6.57;;
28547;SDS011;68292;49.600;8.746;2023-06-22T14:16:10;8.30;;;6.32;;
28547;SDS011;68292;49.600;8.746;2023-06-22T14:18:38;9.40;;;6.55;;
28547;SDS011;68292;49.600;8.746;2023-06-22T14:21:06;9.10;;;6.57;;
28547;SDS011;68292;49.600;8.746;2023-06-22T14:23:35;10.65;;;6.18;;
28547;SDS011;68292;49.600;8.746;2023-06-22T14:26:04;9.15;;;5.85;;
28547;SDS011;68292;49.600;8.746;2023-06-22T14:28:32;7.20;;;6.47;;
28547;SDS011;68292;49.600;8.746;2023-06-22T14:31:00;8.95;;;6.38;;
28547;SDS011;68292;49.600;8.746;2023-06-22T14:33:29;9.00;;;6.65;;
28547;SDS011;68292;49.600;8.746;2023-06-22T14:35:57;8.20;;;6.65;;
28547;SDS011;68292;49.600;8.746;2023-06-22T14:38:26;9.40;;;6.00;;
28547;SDS011;68292;49.600;8.746;2023-06-22T14:40:54;9.05;;;6.20;;
28547;SDS011;68292;49.600;8.746;2023-06-22T14:43:42;10.68;;;5.75;;
28547;SDS011;68292;49.600;8.746;2023-06-22T14:46:12;8.75;;;5.72;;
28547;SDS011;68292;49.600;8.746;2023-06-22T14:48:43;6.88;;;6.10;;
28547;SDS011;68292;49.600;8.746;2023-06-22T14:51:11;10.07;;;6.07;;
28547;SDS011;68292;49.600;8.746;2023-06-22T14:53:43;11.50;;;6.65;;
28547;SDS011;68292;49.600;8.746;2023-06-22T14:56:12;8.73;;;6.10;;
28547;SDS011;68292;49.600;8.746;2023-06-22T14:58:42;8.88;;;6.47;;